createdAt,value
2019-05-18T00:00:02.374Z,99.99
2019-05-18T00:01:02.283Z,99.99
2019-05-18T00:02:55.058Z,99.99
2019-05-18T00:03:54.991Z,99.99
2019-05-18T00:05:47.794Z,99.99
2019-05-18T00:06:47.734Z,99.99
2019-05-18T00:08:40.497Z,99.99
2019-05-18T00:09:40.458Z,99.99
2019-05-18T00:11:33.218Z,99.99
2019-05-18T00:12:33.188Z,99.99
2019-05-18T00:14:25.942Z,99.99
2019-05-18T00:15:25.865Z,99.99
2019-05-18T00:17:25.208Z,99.99
2019-05-18T00:18:18.570Z,99.99
2019-05-18T00:20:11.353Z,99.99
2019-05-18T00:21:11.272Z,99.99
2019-05-18T00:23:04.048Z,99.99
2019-05-18T00:24:03.994Z,99.99
2019-05-18T00:25:56.785Z,99.99
2019-05-18T00:26:56.690Z,99.99
2019-05-18T00:28:49.464Z,99.99
2019-05-18T00:29:49.394Z,99.99
2019-05-18T00:31:42.183Z,99.99
2019-05-18T00:32:42.137Z,99.99
2019-05-18T00:34:34.885Z,99.99
2019-05-18T00:35:34.812Z,99.99
2019-05-18T00:37:27.652Z,99.99
2019-05-18T00:38:27.536Z,99.99
2019-05-18T00:40:20.326Z,99.99
2019-05-18T00:41:20.246Z,99.99
2019-05-18T00:43:13.026Z,99.99
2019-05-18T00:44:12.965Z,99.99
2019-05-18T00:46:05.763Z,99.99
2019-05-18T00:47:05.683Z,99.99
2019-05-18T00:48:58.476Z,99.99
2019-05-18T00:49:58.409Z,99.99
2019-05-18T00:51:51.298Z,99.99
2019-05-18T00:52:51.120Z,99.99
2019-05-18T00:54:43.909Z,99.99
2019-05-18T00:55:43.844Z,99.99
2019-05-18T00:57:36.614Z,99.99
2019-05-18T00:58:36.538Z,99.99
2019-05-18T01:00:29.344Z,99.99
2019-05-18T01:01:29.269Z,99.99
2019-05-18T01:03:22.042Z,99.99
2019-05-18T01:04:21.981Z,99.99
2019-05-18T01:06:14.755Z,99.99
2019-05-18T01:07:14.691Z,99.99
2019-05-18T01:09:07.485Z,99.99
2019-05-18T01:10:07.406Z,99.99
2019-05-18T01:12:00.181Z,99.99
2019-05-18T01:13:00.117Z,99.99
2019-05-18T01:14:52.872Z,99.99
2019-05-18T01:15:52.870Z,99.99
2019-05-18T01:17:56.813Z,99.99
2019-05-18T01:18:45.528Z,99.99
2019-05-18T01:20:38.337Z,99.99
2019-05-18T01:21:38.228Z,99.99
2019-05-18T01:23:30.997Z,99.99
2019-05-18T01:24:30.935Z,99.99
2019-05-18T01:26:23.755Z,99.99
2019-05-18T01:27:23.666Z,99.99
2019-05-18T01:29:16.449Z,99.99
2019-05-18T01:30:16.381Z,99.99
2019-05-18T01:32:09.303Z,99.99
2019-05-18T01:33:09.218Z,99.99
2019-05-18T01:35:02.030Z,99.99
2019-05-18T01:36:01.954Z,99.99
2019-05-18T01:37:54.761Z,99.99
2019-05-18T01:38:54.671Z,99.99
2019-05-18T01:40:47.476Z,99.99
2019-05-18T01:41:47.371Z,99.99
2019-05-18T01:43:40.177Z,99.99
2019-05-18T01:44:40.100Z,99.99
2019-05-18T01:46:32.871Z,99.99
2019-05-18T01:47:32.781Z,99.99
2019-05-18T01:49:25.577Z,99.99
2019-05-18T01:50:25.528Z,99.99
2019-05-18T01:52:18.317Z,99.99
2019-05-18T01:53:18.244Z,99.99
2019-05-18T01:55:40.011Z,99.99
2019-05-18T01:56:39.977Z,99.99
2019-05-18T01:58:32.727Z,99.99
2019-05-18T01:59:32.647Z,99.99
2019-05-18T02:01:25.420Z,99.99
2019-05-18T02:02:25.337Z,99.99
2019-05-18T02:04:18.133Z,99.99
2019-05-18T02:05:18.063Z,99.99
2019-05-18T02:07:10.844Z,99.99
2019-05-18T02:08:10.748Z,99.99
2019-05-18T02:10:03.523Z,99.99
2019-05-18T02:11:03.441Z,99.99
2019-05-18T02:12:56.217Z,99.99
2019-05-18T02:13:56.152Z,99.99
2019-05-18T02:15:48.919Z,99.99
2019-05-18T02:16:48.881Z,99.99
2019-05-18T02:18:41.690Z,99.99
2019-05-18T02:19:41.563Z,99.99
2019-05-18T02:21:34.378Z,99.99
2019-05-18T02:22:34.335Z,99.99
2019-05-18T02:24:27.059Z,99.99
2019-05-18T02:25:26.987Z,99.99
2019-05-18T02:27:19.799Z,99.99
2019-05-18T02:28:19.701Z,99.99
2019-05-18T02:30:17.008Z,99.99
2019-05-18T02:31:12.426Z,99.99
2019-05-18T02:33:05.321Z,99.99
2019-05-18T02:35:58.003Z,99.99
2019-05-18T02:36:57.935Z,99.99
2019-05-18T02:38:50.706Z,99.99
2019-05-18T02:39:50.630Z,99.99
2019-05-18T02:41:43.407Z,99.99
2019-05-18T02:42:43.329Z,99.99
2019-05-18T02:44:36.132Z,99.99
2019-05-18T02:45:36.076Z,99.99
2019-05-18T02:47:28.872Z,99.99
2019-05-18T02:48:28.772Z,99.99
2019-05-18T02:50:21.560Z,99.99
2019-05-18T02:51:21.490Z,99.99
2019-05-18T02:53:14.264Z,99.99
2019-05-18T02:54:14.183Z,99.99
2019-05-18T02:56:06.960Z,99.99
2019-05-18T02:57:06.895Z,99.99
2019-05-18T02:58:59.936Z,99.99
2019-05-18T02:59:59.593Z,99.99
2019-05-18T03:01:52.414Z,99.99
2019-05-18T03:02:52.286Z,99.99
2019-05-18T03:04:45.085Z,99.99
2019-05-18T03:05:45.009Z,99.99
2019-05-18T03:07:37.829Z,99.99
2019-05-18T03:08:37.736Z,99.99
2019-05-18T03:10:30.503Z,99.99
2019-05-18T03:11:30.438Z,99.99
2019-05-18T03:13:23.225Z,99.99
2019-05-18T03:14:23.159Z,99.99
2019-05-18T03:16:15.929Z,99.99
2019-05-18T03:17:15.864Z,99.99
2019-05-18T03:19:09.384Z,99.99
2019-05-18T03:20:08.593Z,99.99
2019-05-18T03:22:01.433Z,99.99
2019-05-18T03:23:01.312Z,99.99
2019-05-18T03:24:54.087Z,99.99
2019-05-18T03:25:54.008Z,99.99
2019-05-18T03:27:46.815Z,99.99
2019-05-18T03:28:46.719Z,99.99
2019-05-18T03:30:39.497Z,99.99
2019-05-18T03:31:39.449Z,99.99
2019-05-18T03:33:32.225Z,99.99
2019-05-18T03:34:32.125Z,99.99
2019-05-18T03:36:24.891Z,99.99
2019-05-18T03:37:24.821Z,99.99
2019-05-18T03:39:17.596Z,99.99
2019-05-18T03:40:17.528Z,99.99
2019-05-18T03:42:10.341Z,99.99
2019-05-18T03:43:10.286Z,99.99
2019-05-18T03:45:03.071Z,99.99
2019-05-18T03:46:03.014Z,99.99
2019-05-18T03:47:55.835Z,99.99
2019-05-18T03:48:55.721Z,99.99
2019-05-18T03:50:48.531Z,99.99
2019-05-18T03:51:48.494Z,99.99
2019-05-18T03:53:41.282Z,99.99
2019-05-18T03:54:41.213Z,99.99
2019-05-18T03:56:33.990Z,99.99
2019-05-18T03:57:33.910Z,99.99
2019-05-18T03:59:26.723Z,99.99
2019-05-18T04:00:26.635Z,99.99
2019-05-18T04:02:19.409Z,99.99
2019-05-18T04:03:19.347Z,99.99
2019-05-18T04:05:12.120Z,99.99
2019-05-18T04:06:12.041Z,99.99
2019-05-18T04:08:04.857Z,99.99
2019-05-18T04:09:04.763Z,99.99
2019-05-18T04:10:57.548Z,99.99
2019-05-18T04:11:57.468Z,99.99
2019-05-18T04:13:50.273Z,99.99
2019-05-18T04:14:50.194Z,99.99
2019-05-18T04:16:42.964Z,99.99
2019-05-18T04:17:42.896Z,99.99
2019-05-18T04:19:46.439Z,99.99
2019-05-18T04:20:35.603Z,99.99
2019-05-18T04:22:28.380Z,99.99
2019-05-18T04:23:28.307Z,99.99
2019-05-18T04:25:21.084Z,99.99
2019-05-18T04:26:21.008Z,99.99
2019-05-18T04:28:13.806Z,99.99
2019-05-18T04:29:13.704Z,99.99
2019-05-18T04:31:06.482Z,99.99
2019-05-18T04:32:06.407Z,99.99
2019-05-18T04:33:59.212Z,99.99
2019-05-18T04:34:59.127Z,99.99
2019-05-18T04:36:51.934Z,99.99
2019-05-18T04:37:51.878Z,99.99
2019-05-18T04:39:44.654Z,99.99
2019-05-18T04:40:44.581Z,99.99
2019-05-18T04:42:37.392Z,99.99
2019-05-18T04:43:37.295Z,99.99
2019-05-18T04:45:30.082Z,99.99
2019-05-18T04:46:29.985Z,99.99
2019-05-18T04:48:22.779Z,99.99
2019-05-18T04:49:22.684Z,99.99
2019-05-18T04:51:15.477Z,99.99
2019-05-18T04:52:15.408Z,99.99
2019-05-18T04:54:08.215Z,99.99
2019-05-18T04:55:08.123Z,99.99
2019-05-18T04:57:00.891Z,99.99
2019-05-18T04:58:00.823Z,99.99
2019-05-18T04:59:53.635Z,99.99
2019-05-18T05:00:53.561Z,99.99
2019-05-18T05:02:46.314Z,99.99
2019-05-18T05:03:46.250Z,99.99
2019-05-18T05:05:39.019Z,99.99
2019-05-18T05:06:38.939Z,99.99
2019-05-18T05:08:31.722Z,99.99
2019-05-18T05:09:31.660Z,99.99
2019-05-18T05:11:24.444Z,99.99
2019-05-18T05:12:24.366Z,99.99
2019-05-18T05:14:17.165Z,99.99
2019-05-18T05:15:17.094Z,99.99
2019-05-18T05:17:09.885Z,99.99
2019-05-18T05:18:09.823Z,99.99
2019-05-18T05:20:02.596Z,99.99
2019-05-18T05:21:02.521Z,99.99
2019-05-18T05:22:55.299Z,99.99
2019-05-18T05:23:55.237Z,98.97
2019-05-18T05:25:48.045Z,98.44
2019-05-18T05:26:47.932Z,98.92
2019-05-18T05:28:40.728Z,98.73
2019-05-18T05:29:40.662Z,97.67
2019-05-18T05:31:33.495Z,97.09
2019-05-18T05:32:33.408Z,96.22
2019-05-18T05:34:26.206Z,97.24
2019-05-18T05:35:26.120Z,97.19
2019-05-18T05:37:18.931Z,95.98
2019-05-18T05:38:18.859Z,93.76
2019-05-18T05:40:11.688Z,96.32
2019-05-18T05:41:16.580Z,96.89
2019-05-18T05:43:04.414Z,96.32
2019-05-18T05:44:04.351Z,95.93
2019-05-18T05:45:57.159Z,93.23
2019-05-18T05:46:57.081Z,91.05
2019-05-18T05:48:50.084Z,89.31
2019-05-18T05:49:49.971Z,87.08
2019-05-18T05:51:42.881Z,86.11
2019-05-18T05:52:42.766Z,85.19
2019-05-18T05:54:35.684Z,84.90
2019-05-18T05:55:35.575Z,83.83
2019-05-18T05:57:28.570Z,82.14
2019-05-18T05:58:28.499Z,81.93
2019-05-18T06:00:21.761Z,79.33
2019-05-18T06:01:21.518Z,83.22
2019-05-18T06:03:14.326Z,83.75
2019-05-18T06:04:14.262Z,85.94
2019-05-18T06:06:07.120Z,87.09
2019-05-18T06:07:06.959Z,84.67
2019-05-18T06:09:00.190Z,85.99
2019-05-18T06:09:59.947Z,85.49
2019-05-18T06:11:52.965Z,86.08
2019-05-18T06:12:52.839Z,86.86
2019-05-18T06:14:45.921Z,85.94
2019-05-18T06:15:45.773Z,84.91
2019-05-18T06:17:38.719Z,81.52
2019-05-18T06:18:38.583Z,80.69
2019-05-18T06:20:31.575Z,80.41
2019-05-18T06:21:31.439Z,79.91
2019-05-18T06:23:24.619Z,75.42
2019-05-18T06:24:24.399Z,73.78
2019-05-18T06:26:17.217Z,74.97
2019-05-18T06:27:17.111Z,72.61
2019-05-18T06:29:09.913Z,69.84
2019-05-18T06:30:09.849Z,70.12
2019-05-18T06:32:02.679Z,75.13
2019-05-18T06:33:02.604Z,76.76
2019-05-18T06:34:55.582Z,77.90
2019-05-18T06:35:55.342Z,76.26
2019-05-18T06:37:48.150Z,75.46
2019-05-18T06:38:48.109Z,74.30
2019-05-18T06:40:40.910Z,75.54
2019-05-18T06:41:40.841Z,75.10
2019-05-18T06:43:33.660Z,75.00
2019-05-18T06:44:33.606Z,75.04
2019-05-18T06:46:26.428Z,72.69
2019-05-18T06:47:26.355Z,72.51
2019-05-18T06:49:19.141Z,67.73
2019-05-18T06:50:19.131Z,66.89
2019-05-18T06:52:12.057Z,72.39
2019-05-18T06:53:16.152Z,73.82
2019-05-18T06:55:05.049Z,69.89
2019-05-18T06:56:04.765Z,70.20
2019-05-18T06:57:57.561Z,73.83
2019-05-18T06:58:57.571Z,76.10
2019-05-18T07:00:50.821Z,76.70
2019-05-18T07:01:50.710Z,75.27
2019-05-18T07:03:45.104Z,70.63
2019-05-18T07:04:44.676Z,69.85
2019-05-18T07:06:36.780Z,68.99
2019-05-18T07:07:36.340Z,67.27
2019-05-18T07:09:30.106Z,68.05
2019-05-18T07:10:29.435Z,68.24
2019-05-18T07:12:22.535Z,69.21
2019-05-18T07:13:22.310Z,68.28
2019-05-18T07:15:15.724Z,68.99
2019-05-18T07:16:15.626Z,69.50
2019-05-18T07:18:10.387Z,70.50
2019-05-18T07:19:08.668Z,71.11
2019-05-18T07:21:01.361Z,71.28
2019-05-18T07:22:02.500Z,69.69
2019-05-18T07:23:54.090Z,72.58
2019-05-18T07:24:54.178Z,73.32
2019-05-18T07:26:47.746Z,71.30
2019-05-18T07:27:46.982Z,70.47
2019-05-18T07:29:39.829Z,71.11
2019-05-18T07:30:39.993Z,72.30
2019-05-18T07:32:32.802Z,75.10
2019-05-18T07:33:32.784Z,73.20
2019-05-18T07:35:25.595Z,71.59
2019-05-18T07:36:25.523Z,71.01
2019-05-18T07:38:18.389Z,68.73
2019-05-18T07:39:18.261Z,67.53
2019-05-18T07:41:11.181Z,68.60
2019-05-18T07:42:11.096Z,68.18
2019-05-18T07:44:03.902Z,72.97
2019-05-18T07:45:03.833Z,72.36
2019-05-18T07:46:56.870Z,69.37
2019-05-18T07:47:56.798Z,69.08
2019-05-18T07:49:49.629Z,69.82
2019-05-18T07:50:49.557Z,69.67
2019-05-18T07:52:42.734Z,69.34
2019-05-18T07:53:42.658Z,67.02
2019-05-18T07:55:35.503Z,69.67
2019-05-18T07:56:35.415Z,67.79
2019-05-18T07:58:28.256Z,64.98
2019-05-18T07:59:28.200Z,64.92
2019-05-18T08:01:21.144Z,66.60
2019-05-18T08:02:21.064Z,68.66
2019-05-18T08:04:13.856Z,66.66
2019-05-18T08:05:13.814Z,65.05
2019-05-18T08:07:06.639Z,64.78
2019-05-18T08:08:06.552Z,64.14
2019-05-18T08:09:59.339Z,66.60
2019-05-18T08:10:59.291Z,66.95
2019-05-18T08:12:52.122Z,64.01
2019-05-18T08:13:52.031Z,64.23
2019-05-18T08:15:44.866Z,61.44
2019-05-18T08:16:44.813Z,62.94
2019-05-18T08:18:37.641Z,63.49
2019-05-18T08:19:37.604Z,61.47
2019-05-18T08:21:30.498Z,61.38
2019-05-18T08:22:30.324Z,60.82
2019-05-18T08:24:23.147Z,59.38
2019-05-18T08:25:23.077Z,57.95
2019-05-18T08:27:15.873Z,56.00
2019-05-18T08:28:15.814Z,57.64
2019-05-18T08:30:08.624Z,62.42
2019-05-18T08:31:08.556Z,63.91
2019-05-18T08:33:01.383Z,65.17
2019-05-18T08:34:01.319Z,65.43
2019-05-18T08:35:54.559Z,64.95
2019-05-18T08:36:54.274Z,65.34
2019-05-18T08:38:47.102Z,68.56
2019-05-18T08:39:47.038Z,68.37
2019-05-18T08:41:39.962Z,65.40
2019-05-18T08:42:39.879Z,64.17
2019-05-18T08:44:32.706Z,62.29
2019-05-18T08:45:32.622Z,62.68
2019-05-18T08:47:25.477Z,61.08
2019-05-18T08:48:25.441Z,60.63
2019-05-18T08:50:18.268Z,58.84
2019-05-18T08:51:18.189Z,58.58
2019-05-18T08:53:11.023Z,59.59
2019-05-18T08:54:10.963Z,60.05
2019-05-18T08:56:03.762Z,58.94
2019-05-18T08:57:03.696Z,58.38
2019-05-18T08:58:56.522Z,59.36
2019-05-18T08:59:56.457Z,59.14
2019-05-18T09:01:49.388Z,59.98
2019-05-18T09:02:49.376Z,59.55
2019-05-18T09:04:42.114Z,57.65
2019-05-18T09:05:42.070Z,58.07
2019-05-18T09:07:34.957Z,56.15
2019-05-18T09:08:34.884Z,58.32
2019-05-18T09:10:27.686Z,60.18
2019-05-18T09:11:27.723Z,60.53
2019-05-18T09:13:20.434Z,59.21
2019-05-18T09:14:20.367Z,60.87
2019-05-18T09:16:13.207Z,64.07
2019-05-18T09:17:13.143Z,64.56
2019-05-18T09:19:05.929Z,62.74
2019-05-18T09:20:05.875Z,63.56
2019-05-18T09:21:58.674Z,63.84
2019-05-18T09:22:58.620Z,62.87
2019-05-18T09:24:51.417Z,61.05
2019-05-18T09:25:51.350Z,60.36
2019-05-18T09:27:44.184Z,60.28
2019-05-18T09:28:44.098Z,60.99
2019-05-18T09:30:36.929Z,61.18
2019-05-18T09:31:36.894Z,60.56
2019-05-18T09:33:29.725Z,59.62
2019-05-18T09:34:29.653Z,59.16
2019-05-18T09:36:22.457Z,57.21
2019-05-18T09:37:22.405Z,57.46
2019-05-18T09:39:15.255Z,61.48
2019-05-18T09:40:15.166Z,61.00
2019-05-18T09:42:08.021Z,61.28
2019-05-18T09:43:07.979Z,59.75
2019-05-18T09:45:00.742Z,60.77
2019-05-18T09:46:00.789Z,62.75
2019-05-18T09:47:53.623Z,63.20
2019-05-18T09:48:53.451Z,63.04
2019-05-18T09:50:46.277Z,62.58
2019-05-18T09:51:46.249Z,63.42
2019-05-18T09:53:50.652Z,60.61
2019-05-18T09:54:38.967Z,61.90
2019-05-18T09:56:31.782Z,63.17
2019-05-18T09:57:31.736Z,62.71
2019-05-18T09:59:24.560Z,64.62
2019-05-18T10:00:24.466Z,64.78
2019-05-18T10:02:17.271Z,63.29
2019-05-18T10:03:17.195Z,62.45
2019-05-18T10:05:09.984Z,62.74
2019-05-18T10:06:09.927Z,62.45
2019-05-18T10:08:02.728Z,62.75
2019-05-18T10:09:02.741Z,63.20
2019-05-18T10:10:55.488Z,61.25
2019-05-18T10:11:55.400Z,62.26
2019-05-18T10:13:48.252Z,61.12
2019-05-18T10:14:48.171Z,61.38
2019-05-18T10:16:40.976Z,59.57
2019-05-18T10:17:40.927Z,61.07
2019-05-18T10:19:33.746Z,62.35
2019-05-18T10:20:33.684Z,62.77
2019-05-18T10:22:26.517Z,61.32
2019-05-18T10:23:26.543Z,61.39
2019-05-18T10:25:19.287Z,64.56
2019-05-18T10:26:19.235Z,65.89
2019-05-18T10:28:12.048Z,63.75
2019-05-18T10:29:11.959Z,63.20
2019-05-18T10:31:04.767Z,60.80
2019-05-18T10:32:04.718Z,60.64
2019-05-18T10:33:57.570Z,60.38
2019-05-18T10:34:57.500Z,60.28
2019-05-18T10:36:50.323Z,61.52
2019-05-18T10:37:50.256Z,62.42
2019-05-18T10:39:43.097Z,60.80
2019-05-18T10:40:43.007Z,60.51
2019-05-18T10:42:35.821Z,61.88
2019-05-18T10:43:35.750Z,64.75
2019-05-18T10:45:28.588Z,63.78
2019-05-18T10:46:28.510Z,63.71
2019-05-18T10:48:21.320Z,63.39
2019-05-18T10:49:21.286Z,65.01
2019-05-18T10:51:14.043Z,63.65
2019-05-18T10:52:14.005Z,64.69
2019-05-18T10:54:06.827Z,65.66
2019-05-18T10:55:06.752Z,65.79
2019-05-18T10:56:59.655Z,66.78
2019-05-18T10:57:59.529Z,67.66
2019-05-18T10:59:52.374Z,68.56
2019-05-18T11:00:52.288Z,69.14
2019-05-18T11:02:45.117Z,68.69
2019-05-18T11:03:45.053Z,68.11
2019-05-18T11:05:37.900Z,69.53
2019-05-18T11:06:37.811Z,70.92
2019-05-18T11:08:30.601Z,70.47
2019-05-18T11:09:30.532Z,69.98
2019-05-18T11:11:23.342Z,69.66
2019-05-18T11:12:23.257Z,70.53
2019-05-18T11:14:18.766Z,70.34
2019-05-18T11:15:15.993Z,70.24
2019-05-18T11:17:08.868Z,70.43
2019-05-18T11:18:08.759Z,70.62
2019-05-18T11:20:01.726Z,71.08
2019-05-18T11:21:01.636Z,71.40
2019-05-18T11:22:55.873Z,71.56
2019-05-18T11:23:54.388Z,71.50
2019-05-18T11:25:47.260Z,71.11
2019-05-18T11:26:47.157Z,70.98
2019-05-18T11:28:40.007Z,72.24
2019-05-18T11:29:39.886Z,72.66
2019-05-18T11:31:32.743Z,72.33
2019-05-18T11:32:32.689Z,73.30
2019-05-18T11:34:25.655Z,73.46
2019-05-18T11:35:25.536Z,73.84
2019-05-18T11:37:18.341Z,73.46
2019-05-18T11:38:18.268Z,73.65
2019-05-18T11:40:11.123Z,74.32
2019-05-18T11:41:10.998Z,73.59
2019-05-18T11:43:03.792Z,73.78
2019-05-18T11:44:03.735Z,72.56
2019-05-18T11:45:56.519Z,71.20
2019-05-18T11:46:56.448Z,71.62
2019-05-18T11:48:49.284Z,70.92
2019-05-18T11:49:49.202Z,70.72
2019-05-18T11:51:41.991Z,70.30
2019-05-18T11:52:41.923Z,71.08
2019-05-18T11:54:34.785Z,71.59
2019-05-18T11:55:34.664Z,71.30
2019-05-18T11:57:27.502Z,71.20
2019-05-18T11:58:27.447Z,71.40
2019-05-18T12:00:20.239Z,70.53
2019-05-18T12:01:20.149Z,69.82
2019-05-18T12:03:12.974Z,70.78
2019-05-18T12:04:12.892Z,70.10
2019-05-18T12:06:05.694Z,70.10
2019-05-18T12:07:05.619Z,69.53
2019-05-18T12:08:58.747Z,69.43
2019-05-18T12:09:58.342Z,69.30
2019-05-18T12:11:51.106Z,68.56
2019-05-18T12:12:51.050Z,68.75
2019-05-18T12:14:43.822Z,67.82
2019-05-18T12:15:43.755Z,68.59
2019-05-18T12:17:36.573Z,67.33
2019-05-18T12:18:36.493Z,66.60
2019-05-18T12:20:29.333Z,66.50
2019-05-18T12:21:29.218Z,66.82
2019-05-18T12:23:21.992Z,66.69
2019-05-18T12:24:21.928Z,66.20
2019-05-18T12:26:14.744Z,67.08
2019-05-18T12:27:14.677Z,66.53
2019-05-18T12:29:07.478Z,66.98
2019-05-18T12:30:07.425Z,66.78
2019-05-18T12:32:00.215Z,64.89
2019-05-18T12:33:00.122Z,65.17
2019-05-18T12:34:52.914Z,67.24
2019-05-18T12:35:52.851Z,68.30
2019-05-18T12:37:45.646Z,67.02
2019-05-18T12:38:45.587Z,66.53
2019-05-18T12:40:38.366Z,65.47
2019-05-18T12:41:38.333Z,66.02
2019-05-18T12:43:31.099Z,66.69
2019-05-18T12:44:31.036Z,66.60
2019-05-18T12:46:23.851Z,66.60
2019-05-18T12:47:23.776Z,66.20
2019-05-18T12:49:16.582Z,66.98
2019-05-18T12:50:16.507Z,66.82
2019-05-18T12:52:09.413Z,66.08
2019-05-18T12:53:09.262Z,65.85
2019-05-18T12:55:02.132Z,66.56
2019-05-18T12:56:01.984Z,65.69
2019-05-18T12:57:54.818Z,64.95
2019-05-18T12:58:54.749Z,64.72
2019-05-18T13:00:47.542Z,64.53
2019-05-18T13:01:47.460Z,64.62
2019-05-18T13:03:40.235Z,64.34
2019-05-18T13:04:42.010Z,63.62
2019-05-18T13:06:32.961Z,63.92
2019-05-18T13:07:32.889Z,64.11
2019-05-18T13:09:25.697Z,64.79
2019-05-18T13:10:25.632Z,64.89
2019-05-18T13:12:18.437Z,65.17
2019-05-18T13:13:18.371Z,64.20
2019-05-18T13:15:11.167Z,65.53
2019-05-18T13:16:11.101Z,65.34
2019-05-18T13:18:03.902Z,65.01
2019-05-18T13:19:03.844Z,65.24
2019-05-18T13:20:56.645Z,66.11
2019-05-18T13:21:56.575Z,66.78
2019-05-18T13:23:49.382Z,65.98
2019-05-18T13:24:52.011Z,65.98
2019-05-18T13:26:42.087Z,65.98
2019-05-18T13:27:42.023Z,66.40
2019-05-18T13:29:34.809Z,66.98
2019-05-18T13:30:34.752Z,66.63
2019-05-18T13:32:27.563Z,67.02
2019-05-18T13:33:27.491Z,65.66
2019-05-18T13:35:20.340Z,65.27
2019-05-18T13:36:20.221Z,64.01
2019-05-18T13:38:12.998Z,62.27
2019-05-18T13:39:20.082Z,62.27
2019-05-18T13:41:05.743Z,63.07
2019-05-18T13:42:05.673Z,63.85
2019-05-18T13:43:58.490Z,62.91
2019-05-18T13:44:58.436Z,62.62
2019-05-18T13:46:51.233Z,61.85
2019-05-18T13:47:51.134Z,61.36
2019-05-18T13:49:43.937Z,62.56
2019-05-18T13:50:44.852Z,62.88
2019-05-18T13:52:36.718Z,63.92
2019-05-18T13:53:36.635Z,63.43
2019-05-18T13:55:29.494Z,63.72
2019-05-18T13:56:29.428Z,64.11
2019-05-18T13:58:22.247Z,63.21
2019-05-18T13:59:22.164Z,63.21
2019-05-18T14:01:14.966Z,63.98
2019-05-18T14:02:14.894Z,63.89
2019-05-18T14:04:07.673Z,64.17
2019-05-18T14:05:07.650Z,63.98
2019-05-18T14:07:00.417Z,62.17
2019-05-18T14:08:00.331Z,61.30
2019-05-18T14:09:53.135Z,61.30
2019-05-18T14:10:53.067Z,61.30
2019-05-18T14:12:45.899Z,60.91
2019-05-18T14:13:45.825Z,60.50
2019-05-18T14:15:38.574Z,61.27
2019-05-18T14:16:38.507Z,60.50
2019-05-18T14:18:31.300Z,62.04
2019-05-18T14:19:31.249Z,61.59
2019-05-18T14:21:24.013Z,60.43
2019-05-18T14:22:23.939Z,61.49
2019-05-18T14:24:16.719Z,61.01
2019-05-18T14:25:19.707Z,60.75
2019-05-18T14:27:09.464Z,61.11
2019-05-18T14:28:09.375Z,61.21
2019-05-18T14:30:02.205Z,61.04
2019-05-18T14:31:02.098Z,60.88
2019-05-18T14:32:54.899Z,59.69
2019-05-18T14:33:54.808Z,60.14
2019-05-18T14:35:47.643Z,60.88
2019-05-18T14:36:47.555Z,60.68
2019-05-18T14:38:40.353Z,59.71
2019-05-18T14:39:40.283Z,60.32
2019-05-18T14:41:33.069Z,59.33
2019-05-18T14:42:33.009Z,59.71
2019-05-18T14:44:25.793Z,60.00
2019-05-18T14:45:25.716Z,60.49
2019-05-18T14:47:18.539Z,59.78
2019-05-18T14:48:18.456Z,60.36
2019-05-18T14:50:11.246Z,59.84
2019-05-18T14:51:11.184Z,60.04
2019-05-18T14:53:03.980Z,61.14
2019-05-18T14:54:03.903Z,60.85
2019-05-18T14:55:56.691Z,60.39
2019-05-18T14:56:56.619Z,60.88
2019-05-18T14:58:49.422Z,60.85
2019-05-18T14:59:49.346Z,59.07
2019-05-18T15:01:42.148Z,57.81
2019-05-18T15:02:42.082Z,58.23
2019-05-18T15:04:34.832Z,55.42
2019-05-18T15:05:34.775Z,55.22
2019-05-18T15:07:27.587Z,56.97
2019-05-18T15:08:27.498Z,58.39
2019-05-18T15:10:20.273Z,58.01
2019-05-18T15:11:20.209Z,58.39
2019-05-18T15:13:13.009Z,58.11
2019-05-18T15:14:12.936Z,58.01
2019-05-18T15:16:05.776Z,58.59
2019-05-18T15:17:05.659Z,59.10
2019-05-18T15:18:58.460Z,58.30
2019-05-18T15:19:58.383Z,58.01
2019-05-18T15:21:51.192Z,59.27
2019-05-18T15:22:51.122Z,58.98
2019-05-18T15:24:43.927Z,58.78
2019-05-18T15:25:50.639Z,59.46
2019-05-18T15:27:36.617Z,59.75
2019-05-18T15:28:36.558Z,58.69
2019-05-18T15:30:29.384Z,60.33
2019-05-18T15:31:29.310Z,59.75
2019-05-18T15:33:22.123Z,59.49
2019-05-18T15:34:22.086Z,58.91
2019-05-18T15:36:14.839Z,59.03
2019-05-18T15:37:14.781Z,56.71
2019-05-18T15:39:07.572Z,54.58
2019-05-18T15:40:07.498Z,53.80
2019-05-18T15:42:00.303Z,53.29
2019-05-18T15:43:00.242Z,53.67
2019-05-18T15:44:53.133Z,53.77
2019-05-18T15:45:52.990Z,53.58
2019-05-18T15:47:45.806Z,53.67
2019-05-18T15:48:45.819Z,52.87
2019-05-18T15:50:38.500Z,53.55
2019-05-18T15:51:38.443Z,53.77
2019-05-18T15:53:31.255Z,54.64
2019-05-18T15:54:31.172Z,53.75
2019-05-18T15:56:23.951Z,53.07
2019-05-18T15:57:23.957Z,53.65
2019-05-18T15:59:16.690Z,53.65
2019-05-18T16:00:16.619Z,53.65
2019-05-18T16:02:09.417Z,53.75
2019-05-18T16:03:09.342Z,53.75
2019-05-18T16:05:02.246Z,54.03
2019-05-18T16:06:02.187Z,53.55
2019-05-18T16:07:54.881Z,53.94
2019-05-18T16:08:54.801Z,53.85
2019-05-18T16:10:47.594Z,53.55
2019-05-18T16:11:47.523Z,53.55
2019-05-18T16:13:40.370Z,53.94
2019-05-18T16:14:40.252Z,54.13
2019-05-18T16:16:33.041Z,54.23
2019-05-18T16:17:39.673Z,53.94
2019-05-18T16:19:25.779Z,53.75
2019-05-18T16:20:25.715Z,53.94
2019-05-18T16:22:18.489Z,53.94
2019-05-18T16:23:18.428Z,54.03
2019-05-18T16:25:11.262Z,54.03
2019-05-18T16:26:21.213Z,54.13
2019-05-18T16:28:04.006Z,55.00
2019-05-18T16:29:03.912Z,54.03
2019-05-18T16:30:56.722Z,54.81
2019-05-18T16:31:56.658Z,55.30
2019-05-18T16:33:49.447Z,54.91
2019-05-18T16:34:49.376Z,53.94
2019-05-18T16:36:42.160Z,53.75
2019-05-18T16:37:42.136Z,54.23
2019-05-18T16:39:34.944Z,53.85
2019-05-18T16:40:34.866Z,53.55
2019-05-18T16:42:27.627Z,54.55
2019-05-18T16:43:27.568Z,53.49
2019-05-18T16:45:20.357Z,54.84
2019-05-18T16:46:20.279Z,54.55
2019-05-18T16:48:13.103Z,56.00
2019-05-18T16:49:13.012Z,55.78
2019-05-18T16:51:05.810Z,55.98
2019-05-18T16:52:05.710Z,55.88
2019-05-18T16:53:58.567Z,55.20
2019-05-18T16:54:58.520Z,55.10
2019-05-18T16:56:51.349Z,55.78
2019-05-18T16:57:51.249Z,55.78
2019-05-18T16:59:44.080Z,56.07
2019-05-18T17:00:43.953Z,55.68
2019-05-18T17:02:36.751Z,55.98
2019-05-18T17:03:36.688Z,55.76
2019-05-18T17:05:29.546Z,57.11
2019-05-18T17:06:29.434Z,56.65
2019-05-18T17:08:22.249Z,57.62
2019-05-18T17:09:22.231Z,57.43
2019-05-18T17:11:14.984Z,57.50
2019-05-18T17:12:14.903Z,57.91
2019-05-18T17:14:07.767Z,58.39
2019-05-18T17:15:07.902Z,58.30
2019-05-18T17:17:00.454Z,58.47
2019-05-18T17:18:00.388Z,58.56
2019-05-18T17:19:53.234Z,58.95
2019-05-18T17:20:53.124Z,58.75
2019-05-18T17:22:45.920Z,59.23
2019-05-18T17:23:45.852Z,59.82
2019-05-18T17:25:38.643Z,59.91
2019-05-18T17:26:51.596Z,60.01
2019-05-18T17:28:31.374Z,59.23
2019-05-18T17:29:31.305Z,58.85
2019-05-18T17:31:24.151Z,58.95
2019-05-18T17:32:24.081Z,59.23
2019-05-18T17:34:16.948Z,58.92
2019-05-18T17:35:16.827Z,58.75
2019-05-18T17:37:09.628Z,59.89
2019-05-18T17:38:09.551Z,59.50
2019-05-18T17:40:02.925Z,58.82
2019-05-18T17:41:02.361Z,59.31
2019-05-18T17:42:55.268Z,59.40
2019-05-18T17:43:55.133Z,59.50
2019-05-18T17:45:48.290Z,60.82
2019-05-18T17:46:48.095Z,59.66
2019-05-18T17:48:41.066Z,61.02
2019-05-18T17:49:40.929Z,61.40
2019-05-18T17:51:34.133Z,63.14
2019-05-18T17:52:34.071Z,61.89
2019-05-18T17:54:26.966Z,63.98
2019-05-18T17:55:27.002Z,63.50
2019-05-18T17:57:19.715Z,63.21
2019-05-18T17:58:19.574Z,63.79
2019-05-18T18:00:12.487Z,63.89
2019-05-18T18:01:12.534Z,63.50
2019-05-18T18:03:05.513Z,62.73
2019-05-18T18:04:06.583Z,63.11
2019-05-18T18:05:58.215Z,63.89
2019-05-18T18:06:57.975Z,64.27
2019-05-18T18:08:50.918Z,63.76
2019-05-18T18:09:50.968Z,64.92
2019-05-18T18:11:44.000Z,65.11
2019-05-18T18:12:45.598Z,66.36
2019-05-18T18:14:36.839Z,67.04
2019-05-18T18:15:36.717Z,67.43
2019-05-18T18:17:29.667Z,66.82
2019-05-18T18:18:29.445Z,67.01
2019-05-18T18:20:22.689Z,66.24
2019-05-18T18:21:22.419Z,68.46
2019-05-18T18:23:15.695Z,69.42
2019-05-18T18:24:15.515Z,69.90
2019-05-18T18:26:08.441Z,70.06
2019-05-18T18:27:22.731Z,70.74
2019-05-18T18:29:04.178Z,72.48
2019-05-18T18:30:01.081Z,72.00
2019-05-18T18:31:53.937Z,73.35
2019-05-18T18:32:53.953Z,73.41